sensor_id;sensor_type;location;lat;lon;timestamp;P1;durP1;ratioP1;P2;durP2;ratioP2
24801;SDS011;12898;50.520;12.152;2023-04-24T00:00:00;4.57;;;1.70;;
24801;SDS011;12898;50.520;12.152;2023-04-24T00:02:30;4.35;;;2.00;;
24801;SDS011;12898;50.520;12.152;2023-04-24T00:04:57;2.60;;;1.90;;
24801;SDS011;12898;50.520;12.152;2023-04-24T00:07:28;3.70;;;1.85;;
24801;SDS011;12898;50.520;12.152;2023-04-24T00:09:54;3.25;;;1.90;;
24801;SDS011;12898;50.520;12.152;2023-04-24T00:12:20;2.65;;;1.92;;
24801;SDS011;12898;50.520;12.152;2023-04-24T00:14:46;4.88;;;2.00;;
24801;SDS011;12898;50.520;12.152;2023-04-24T00:17:12;3.25;;;1.98;;
24801;SDS011;12898;50.520;12.152;2023-04-24T00:19:38;2.78;;;1.90;;
24801;SDS011;12898;50.520;12.152;2023-04-24T00:22:03;3.75;;;2.10;;
24801;SDS011;12898;50.520;12.152;2023-04-24T00:24:30;3.90;;;2.33;;
24801;SDS011;12898;50.520;12.152;2023-04-24T00:26:56;3.22;;;1.83;;
24801;SDS011;12898;50.520;12.152;2023-04-24T00:29:22;5.22;;;2.13;;
24801;SDS011;12898;50.520;12.152;2023-04-24T00:31:48;3.17;;;2.00;;
24801;SDS011;12898;50.520;12.152;2023-04-24T00:34:13;3.55;;;2.20;;
24801;SDS011;12898;50.520;12.152;2023-04-24T00:36:39;5.00;;;2.30;;
24801;SDS011;12898;50.520;12.152;2023-04-24T00:39:05;4.25;;;2.05;;
24801;SDS011;12898;50.520;12.152;2023-04-24T00:41:33;4.43;;;2.17;;
24801;SDS011;12898;50.520;12.152;2023-04-24T00:44:00;6.20;;;2.38;;
24801;SDS011;12898;50.520;12.152;2023-04-24T00:46:26;4.32;;;2.50;;
24801;SDS011;12898;50.520;12.152;2023-04-24T00:48:51;3.45;;;2.20;;
24801;SDS011;12898;50.520;12.152;2023-04-24T00:51:17;4.78;;;2.33;;
24801;SDS011;12898;50.520;12.152;2023-04-24T00:53:43;5.13;;;2.67;;
24801;SDS011;12898;50.520;12.152;2023-04-24T00:56:09;2.88;;;2.20;;
24801;SDS011;12898;50.520;12.152;2023-04-24T00:58:35;6.13;;;2.60;;
24801;SDS011;12898;50.520;12.152;2023-04-24T01:01:01;7.50;;;2.60;;
24801;SDS011;12898;50.520;12.152;2023-04-24T01:03:28;4.90;;;2.50;;
24801;SDS011;12898;50.520;12.152;2023-04-24T01:05:56;4.10;;;2.30;;
24801;SDS011;12898;50.520;12.152;2023-04-24T01:08:23;3.75;;;2.72;;
24801;SDS011;12898;50.520;12.152;2023-04-24T01:10:51;4.30;;;2.65;;
24801;SDS011;12898;50.520;12.152;2023-04-24T01:13:18;4.30;;;2.28;;
24801;SDS011;12898;50.520;12.152;2023-04-24T01:15:45;6.18;;;2.70;;
24801;SDS011;12898;50.520;12.152;2023-04-24T01:18:12;4.13;;;2.35;;
24801;SDS011;12898;50.520;12.152;2023-04-24T01:20:39;4.45;;;2.60;;
24801;SDS011;12898;50.520;12.152;2023-04-24T01:23:07;3.65;;;2.17;;
24801;SDS011;12898;50.520;12.152;2023-04-24T01:25:33;4.07;;;1.92;;
24801;SDS011;12898;50.520;12.152;2023-04-24T01:28:00;4.70;;;2.20;;
24801;SDS011;12898;50.520;12.152;2023-04-24T01:30:26;2.85;;;2.33;;
24801;SDS011;12898;50.520;12.152;2023-04-24T01:32:53;4.13;;;2.33;;
24801;SDS011;12898;50.520;12.152;2023-04-24T01:35:19;3.65;;;2.28;;
24801;SDS011;12898;50.520;12.152;2023-04-24T01:37:44;4.50;;;2.65;;
24801;SDS011;12898;50.520;12.152;2023-04-24T01:40:10;4.45;;;2.05;;
24801;SDS011;12898;50.520;12.152;2023-04-24T01:42:37;3.72;;;2.33;;
24801;SDS011;12898;50.520;12.152;2023-04-24T01:45:03;3.55;;;2.30;;
24801;SDS011;12898;50.520;12.152;2023-04-24T01:47:30;3.28;;;2.15;;
24801;SDS011;12898;50.520;12.152;2023-04-24T01:49:57;4.15;;;2.38;;
24801;SDS011;12898;50.520;12.152;2023-04-24T01:52:23;3.90;;;2.25;;
24801;SDS011;12898;50.520;12.152;2023-04-24T01:54:49;3.90;;;2.50;;
24801;SDS011;12898;50.520;12.152;2023-04-24T01:57:15;4.78;;;2.50;;
24801;SDS011;12898;50.520;12.152;2023-04-24T01:59:41;3.67;;;2.50;;
24801;SDS011;12898;50.520;12.152;2023-04-24T02:02:07;4.85;;;2.50;;
24801;SDS011;12898;50.520;12.152;2023-04-24T02:04:33;4.43;;;2.55;;
24801;SDS011;12898;50.520;12.152;2023-04-24T02:06:59;3.25;;;2.28;;
24801;SDS011;12898;50.520;12.152;2023-04-24T02:09:24;4.38;;;2.53;;
24801;SDS011;12898;50.520;12.152;2023-04-24T02:11:50;6.05;;;2.58;;
24801;SDS011;12898;50.520;12.152;2023-04-24T02:14:16;4.93;;;2.65;;
24801;SDS011;12898;50.520;12.152;2023-04-24T02:16:42;3.95;;;2.42;;
24801;SDS011;12898;50.520;12.152;2023-04-24T02:19:08;3.30;;;2.47;;
24801;SDS011;12898;50.520;12.152;2023-04-24T02:21:34;4.07;;;2.35;;
24801;SDS011;12898;50.520;12.152;2023-04-24T02:24:00;6.20;;;2.42;;
24801;SDS011;12898;50.520;12.152;2023-04-24T02:26:26;4.38;;;2.50;;
24801;SDS011;12898;50.520;12.152;2023-04-24T02:28:52;5.53;;;2.90;;
24801;SDS011;12898;50.520;12.152;2023-04-24T02:31:18;7.43;;;2.70;;
24801;SDS011;12898;50.520;12.152;2023-04-24T02:33:43;6.45;;;2.85;;
24801;SDS011;12898;50.520;12.152;2023-04-24T02:36:09;5.50;;;2.95;;
24801;SDS011;12898;50.520;12.152;2023-04-24T02:38:35;4.70;;;3.13;;
24801;SDS011;12898;50.520;12.152;2023-04-24T02:41:01;6.32;;;2.92;;
24801;SDS011;12898;50.520;12.152;2023-04-24T02:43:27;4.00;;;2.88;;
24801;SDS011;12898;50.520;12.152;2023-04-24T02:45:53;7.78;;;2.95;;
24801;SDS011;12898;50.520;12.152;2023-04-24T02:48:19;5.53;;;3.00;;
24801;SDS011;12898;50.520;12.152;2023-04-24T02:50:45;7.50;;;3.38;;
24801;SDS011;12898;50.520;12.152;2023-04-24T02:53:12;7.70;;;3.40;;
24801;SDS011;12898;50.520;12.152;2023-04-24T02:55:38;7.72;;;4.05;;
24801;SDS011;12898;50.520;12.152;2023-04-24T02:58:03;6.53;;;3.88;;
24801;SDS011;12898;50.520;12.152;2023-04-24T03:00:29;6.75;;;4.22;;
24801;SDS011;12898;50.520;12.152;2023-04-24T03:02:55;7.10;;;4.25;;
24801;SDS011;12898;50.520;12.152;2023-04-24T03:05:21;9.52;;;4.43;;
24801;SDS011;12898;50.520;12.152;2023-04-24T03:07:47;7.32;;;4.50;;
24801;SDS011;12898;50.520;12.152;2023-04-24T03:10:13;6.57;;;3.78;;
24801;SDS011;12898;50.520;12.152;2023-04-24T03:12:38;5.95;;;3.30;;
24801;SDS011;12898;50.520;12.152;2023-04-24T03:15:04;6.57;;;3.50;;
24801;SDS011;12898;50.520;12.152;2023-04-24T03:17:31;6.82;;;3.22;;
24801;SDS011;12898;50.520;12.152;2023-04-24T03:19:56;5.80;;;3.60;;
24801;SDS011;12898;50.520;12.152;2023-04-24T03:22:22;5.38;;;3.08;;
24801;SDS011;12898;50.520;12.152;2023-04-24T03:24:48;5.13;;;3.47;;
24801;SDS011;12898;50.520;12.152;2023-04-24T03:27:13;6.82;;;3.90;;
24801;SDS011;12898;50.520;12.152;2023-04-24T03:29:42;7.47;;;3.80;;
24801;SDS011;12898;50.520;12.152;2023-04-24T03:32:08;6.22;;;3.30;;
24801;SDS011;12898;50.520;12.152;2023-04-24T03:34:34;6.10;;;3.60;;
24801;SDS011;12898;50.520;12.152;2023-04-24T03:36:59;6.30;;;3.47;;
24801;SDS011;12898;50.520;12.152;2023-04-24T03:39:25;6.07;;;3.35;;
24801;SDS011;12898;50.520;12.152;2023-04-24T03:41:52;7.90;;;3.80;;
24801;SDS011;12898;50.520;12.152;2023-04-24T03:44:17;7.63;;;3.45;;
24801;SDS011;12898;50.520;12.152;2023-04-24T03:46:43;5.93;;;3.33;;
24801;SDS011;12898;50.520;12.152;2023-04-24T03:49:09;5.80;;;3.20;;
24801;SDS011;12898;50.520;12.152;2023-04-24T03:51:34;5.65;;;3.03;;
24801;SDS011;12898;50.520;12.152;2023-04-24T03:54:00;8.38;;;3.20;;
24801;SDS011;12898;50.520;12.152;2023-04-24T03:56:26;12.25;;;2.78;;
24801;SDS011;12898;50.520;12.152;2023-04-24T03:58:51;5.65;;;2.92;;
24801;SDS011;12898;50.520;12.152;2023-04-24T04:01:17;6.00;;;3.30;;
24801;SDS011;12898;50.520;12.152;2023-04-24T04:03:43;7.43;;;3.65;;
24801;SDS011;12898;50.520;12.152;2023-04-24T04:06:09;5.25;;;3.30;;
24801;SDS011;12898;50.520;12.152;2023-04-24T04:08:36;7.78;;;3.38;;
24801;SDS011;12898;50.520;12.152;2023-04-24T04:11:01;4.75;;;2.90;;
24801;SDS011;12898;50.520;12.152;2023-04-24T04:13:27;6.78;;;3.17;;
24801;SDS011;12898;50.520;12.152;2023-04-24T04:15:53;8.45;;;3.30;;
24801;SDS011;12898;50.520;12.152;2023-04-24T04:18:19;6.30;;;3.08;;
24801;SDS011;12898;50.520;12.152;2023-04-24T04:20:45;9.23;;;3.22;;
24801;SDS011;12898;50.520;12.152;2023-04-24T04:23:10;5.53;;;2.80;;
24801;SDS011;12898;50.520;12.152;2023-04-24T04:25:36;4.60;;;2.67;;
24801;SDS011;12898;50.520;12.152;2023-04-24T04:28:02;6.20;;;2.72;;
24801;SDS011;12898;50.520;12.152;2023-04-24T04:30:27;5.85;;;2.63;;
24801;SDS011;12898;50.520;12.152;2023-04-24T04:32:57;3.75;;;2.45;;
24801;SDS011;12898;50.520;12.152;2023-04-24T04:35:24;4.43;;;2.95;;
24801;SDS011;12898;50.520;12.152;2023-04-24T04:37:49;6.68;;;2.40;;
24801;SDS011;12898;50.520;12.152;2023-04-24T04:40:16;3.35;;;2.40;;
24801;SDS011;12898;50.520;12.152;2023-04-24T04:42:42;4.00;;;2.55;;
24801;SDS011;12898;50.520;12.152;2023-04-24T04:45:11;8.45;;;2.50;;
24801;SDS011;12898;50.520;12.152;2023-04-24T04:47:37;4.15;;;2.58;;
24801;SDS011;12898;50.520;12.152;2023-04-24T04:50:03;4.93;;;2.60;;
24801;SDS011;12898;50.520;12.152;2023-04-24T04:52:30;4.60;;;2.67;;
24801;SDS011;12898;50.520;12.152;2023-04-24T04:54:56;5.32;;;2.47;;
24801;SDS011;12898;50.520;12.152;2023-04-24T04:57:22;6.25;;;2.97;;
24801;SDS011;12898;50.520;12.152;2023-04-24T04:59:47;4.00;;;2.45;;
24801;SDS011;12898;50.520;12.152;2023-04-24T05:02:13;4.57;;;2.33;;
24801;SDS011;12898;50.520;12.152;2023-04-24T05:04:39;5.65;;;2.65;;
24801;SDS011;12898;50.520;12.152;2023-04-24T05:07:05;5.30;;;2.45;;
24801;SDS011;12898;50.520;12.152;2023-04-24T05:09:31;5.32;;;2.40;;
24801;SDS011;12898;50.520;12.152;2023-04-24T05:11:56;4.60;;;2.55;;
24801;SDS011;12898;50.520;12.152;2023-04-24T05:14:22;4.95;;;2.50;;
24801;SDS011;12898;50.520;12.152;2023-04-24T05:16:48;5.43;;;2.50;;
24801;SDS011;12898;50.520;12.152;2023-04-24T05:19:13;4.35;;;2.40;;
24801;SDS011;12898;50.520;12.152;2023-04-24T05:21:40;8.07;;;2.97;;
24801;SDS011;12898;50.520;12.152;2023-04-24T05:24:06;4.40;;;2.55;;
24801;SDS011;12898;50.520;12.152;2023-04-24T05:26:32;4.45;;;2.40;;
24801;SDS011;12898;50.520;12.152;2023-04-24T05:28:58;5.32;;;2.75;;
24801;SDS011;12898;50.520;12.152;2023-04-24T05:31:23;7.93;;;2.75;;
24801;SDS011;12898;50.520;12.152;2023-04-24T05:33:50;7.63;;;2.78;;
24801;SDS011;12898;50.520;12.152;2023-04-24T05:36:15;3.95;;;2.30;;
24801;SDS011;12898;50.520;12.152;2023-04-24T05:38:41;3.90;;;2.67;;
24801;SDS011;12898;50.520;12.152;2023-04-24T05:41:07;4.90;;;2.70;;
24801;SDS011;12898;50.520;12.152;2023-04-24T05:43:32;7.57;;;2.92;;
24801;SDS011;12898;50.520;12.152;2023-04-24T05:45:58;5.50;;;2.80;;
24801;SDS011;12898;50.520;12.152;2023-04-24T05:48:24;4.60;;;3.00;;
24801;SDS011;12898;50.520;12.152;2023-04-24T05:50:50;5.82;;;3.05;;
24801;SDS011;12898;50.520;12.152;2023-04-24T05:53:17;5.55;;;3.10;;
24801;SDS011;12898;50.520;12.152;2023-04-24T05:55:43;6.80;;;3.47;;
24801;SDS011;12898;50.520;12.152;2023-04-24T05:58:09;6.18;;;3.22;;
24801;SDS011;12898;50.520;12.152;2023-04-24T06:00:36;6.07;;;2.72;;
24801;SDS011;12898;50.520;12.152;2023-04-24T06:03:02;6.07;;;3.10;;
24801;SDS011;12898;50.520;12.152;2023-04-24T06:05:28;6.03;;;2.90;;
24801;SDS011;12898;50.520;12.152;2023-04-24T06:07:55;6.40;;;3.40;;
24801;SDS011;12898;50.520;12.152;2023-04-24T06:10:20;5.95;;;3.05;;
24801;SDS011;12898;50.520;12.152;2023-04-24T06:12:46;5.60;;;3.25;;
24801;SDS011;12898;50.520;12.152;2023-04-24T06:15:12;8.13;;;2.90;;
24801;SDS011;12898;50.520;12.152;2023-04-24T06:17:37;7.00;;;2.75;;
24801;SDS011;12898;50.520;12.152;2023-04-24T06:20:03;7.05;;;2.83;;
24801;SDS011;12898;50.520;12.152;2023-04-24T06:22:31;5.50;;;2.90;;
24801;SDS011;12898;50.520;12.152;2023-04-24T06:24:57;5.78;;;3.10;;
24801;SDS011;12898;50.520;12.152;2023-04-24T06:27:24;6.63;;;2.33;;
24801;SDS011;12898;50.520;12.152;2023-04-24T06:29:50;7.03;;;2.67;;
24801;SDS011;12898;50.520;12.152;2023-04-24T06:32:22;3.33;;;2.10;;
24801;SDS011;12898;50.520;12.152;2023-04-24T06:34:50;5.40;;;2.10;;
24801;SDS011;12898;50.520;12.152;2023-04-24T06:37:18;11.00;;;5.35;;
24801;SDS011;12898;50.520;12.152;2023-04-24T06:39:45;16.80;;;8.00;;
24801;SDS011;12898;50.520;12.152;2023-04-24T06:42:11;4.43;;;2.03;;
24801;SDS011;12898;50.520;12.152;2023-04-24T06:44:37;5.63;;;2.47;;
24801;SDS011;12898;50.520;12.152;2023-04-24T06:47:06;6.95;;;2.03;;
24801;SDS011;12898;50.520;12.152;2023-04-24T06:49:37;11.32;;;4.10;;
24801;SDS011;12898;50.520;12.152;2023-04-24T06:52:03;4.55;;;2.03;;
24801;SDS011;12898;50.520;12.152;2023-04-24T06:54:29;18.80;;;5.38;;
24801;SDS011;12898;50.520;12.152;2023-04-24T06:56:56;6.20;;;2.17;;
24801;SDS011;12898;50.520;12.152;2023-04-24T06:59:22;3.28;;;1.70;;
24801;SDS011;12898;50.520;12.152;2023-04-24T07:01:49;6.57;;;2.03;;
24801;SDS011;12898;50.520;12.152;2023-04-24T07:04:16;3.10;;;1.48;;
24801;SDS011;12898;50.520;12.152;2023-04-24T07:06:42;4.93;;;1.67;;
24801;SDS011;12898;50.520;12.152;2023-04-24T07:09:10;5.93;;;1.80;;
24801;SDS011;12898;50.520;12.152;2023-04-24T07:11:36;3.97;;;1.20;;
24801;SDS011;12898;50.520;12.152;2023-04-24T07:14:04;4.40;;;1.65;;
24801;SDS011;12898;50.520;12.152;2023-04-24T07:16:29;3.47;;;1.27;;
24801;SDS011;12898;50.520;12.152;2023-04-24T07:18:55;4.15;;;1.45;;
24801;SDS011;12898;50.520;12.152;2023-04-24T07:21:21;3.42;;;1.23;;
24801;SDS011;12898;50.520;12.152;2023-04-24T07:23:46;5.53;;;1.52;;
24801;SDS011;12898;50.520;12.152;2023-04-24T07:26:12;3.58;;;1.50;;
24801;SDS011;12898;50.520;12.152;2023-04-24T07:28:39;4.03;;;1.55;;
24801;SDS011;12898;50.520;12.152;2023-04-24T07:31:06;1.63;;;1.17;;
24801;SDS011;12898;50.520;12.152;2023-04-24T07:33:35;3.40;;;1.40;;
24801;SDS011;12898;50.520;12.152;2023-04-24T07:36:01;2.67;;;1.30;;
24801;SDS011;12898;50.520;12.152;2023-04-24T07:38:29;3.10;;;1.42;;
24801;SDS011;12898;50.520;12.152;2023-04-24T07:40:55;6.38;;;1.23;;
24801;SDS011;12898;50.520;12.152;2023-04-24T07:43:21;5.30;;;1.63;;
24801;SDS011;12898;50.520;12.152;2023-04-24T07:45:48;3.10;;;1.33;;
24801;SDS011;12898;50.520;12.152;2023-04-24T07:48:17;10.55;;;4.40;;
24801;SDS011;12898;50.520;12.152;2023-04-24T07:50:43;3.38;;;2.20;;
24801;SDS011;12898;50.520;12.152;2023-04-24T07:53:10;4.32;;;1.38;;
24801;SDS011;12898;50.520;12.152;2023-04-24T07:55:35;6.63;;;1.60;;
24801;SDS011;12898;50.520;12.152;2023-04-24T07:58:03;6.38;;;1.73;;
24801;SDS011;12898;50.520;12.152;2023-04-24T08:00:29;3.53;;;1.65;;
24801;SDS011;12898;50.520;12.152;2023-04-24T08:02:55;3.05;;;1.10;;
24801;SDS011;12898;50.520;12.152;2023-04-24T08:05:20;3.63;;;1.38;;
24801;SDS011;12898;50.520;12.152;2023-04-24T08:07:46;2.08;;;1.10;;
24801;SDS011;12898;50.520;12.152;2023-04-24T08:10:14;1.77;;;0.98;;
24801;SDS011;12898;50.520;12.152;2023-04-24T08:12:40;1.63;;;1.17;;
24801;SDS011;12898;50.520;12.152;2023-04-24T08:15:06;2.58;;;0.90;;
24801;SDS011;12898;50.520;12.152;2023-04-24T08:17:33;1.73;;;1.10;;
24801;SDS011;12898;50.520;12.152;2023-04-24T08:20:00;4.47;;;1.52;;
24801;SDS011;12898;50.520;12.152;2023-04-24T08:22:27;4.22;;;1.00;;
24801;SDS011;12898;50.520;12.152;2023-04-24T08:24:53;1.77;;;1.08;;
24801;SDS011;12898;50.520;12.152;2023-04-24T08:27:19;5.18;;;1.13;;
24801;SDS011;12898;50.520;12.152;2023-04-24T08:29:45;3.47;;;1.00;;
24801;SDS011;12898;50.520;12.152;2023-04-24T08:32:11;3.75;;;0.95;;
24801;SDS011;12898;50.520;12.152;2023-04-24T08:34:37;2.88;;;0.82;;
24801;SDS011;12898;50.520;12.152;2023-04-24T08:37:02;2.05;;;1.05;;
24801;SDS011;12898;50.520;12.152;2023-04-24T08:39:28;2.47;;;1.00;;
24801;SDS011;12898;50.520;12.152;2023-04-24T08:41:54;2.58;;;0.80;;
24801;SDS011;12898;50.520;12.152;2023-04-24T08:44:21;1.83;;;0.82;;
24801;SDS011;12898;50.520;12.152;2023-04-24T08:46:50;3.03;;;0.85;;
24801;SDS011;12898;50.520;12.152;2023-04-24T08:49:16;1.38;;;0.82;;
24801;SDS011;12898;50.520;12.152;2023-04-24T08:51:43;2.72;;;0.80;;
24801;SDS011;12898;50.520;12.152;2023-04-24T08:54:11;2.67;;;1.13;;
24801;SDS011;12898;50.520;12.152;2023-04-24T08:56:37;1.27;;;0.85;;
24801;SDS011;12898;50.520;12.152;2023-04-24T08:59:05;2.72;;;1.00;;
24801;SDS011;12898;50.520;12.152;2023-04-24T09:01:32;2.78;;;1.20;;
24801;SDS011;12898;50.520;12.152;2023-04-24T09:04:03;1.88;;;1.30;;
24801;SDS011;12898;50.520;12.152;2023-04-24T09:06:30;1.02;;;0.90;;
24801;SDS011;12898;50.520;12.152;2023-04-24T09:08:57;3.58;;;1.17;;
24801;SDS011;12898;50.520;12.152;2023-04-24T09:11:30;1.48;;;1.00;;
24801;SDS011;12898;50.520;12.152;2023-04-24T09:13:59;1.13;;;0.98;;
24801;SDS011;12898;50.520;12.152;2023-04-24T09:16:26;2.85;;;1.10;;
24801;SDS011;12898;50.520;12.152;2023-04-24T09:18:52;2.67;;;1.13;;
24801;SDS011;12898;50.520;12.152;2023-04-24T09:21:19;1.92;;;0.90;;
24801;SDS011;12898;50.520;12.152;2023-04-24T09:23:57;6.25;;;1.08;;
24801;SDS011;12898;50.520;12.152;2023-04-24T09:26:25;1.77;;;1.05;;
24801;SDS011;12898;50.520;12.152;2023-04-24T09:28:51;1.42;;;1.10;;
24801;SDS011;12898;50.520;12.152;2023-04-24T09:31:19;3.67;;;1.30;;
24801;SDS011;12898;50.520;12.152;2023-04-24T09:33:53;3.90;;;1.20;;
24801;SDS011;12898;50.520;12.152;2023-04-24T09:36:28;1.25;;;1.15;;
24801;SDS011;12898;50.520;12.152;2023-04-24T09:38:59;2.83;;;1.33;;
24801;SDS011;12898;50.520;12.152;2023-04-24T09:41:26;1.63;;;1.15;;
24801;SDS011;12898;50.520;12.152;2023-04-24T09:43:54;1.27;;;0.95;;
24801;SDS011;12898;50.520;12.152;2023-04-24T09:46:21;2.22;;;1.25;;
24801;SDS011;12898;50.520;12.152;2023-04-24T09:48:54;2.70;;;1.15;;
24801;SDS011;12898;50.520;12.152;2023-04-24T09:51:24;1.45;;;1.10;;
24801;SDS011;12898;50.520;12.152;2023-04-24T09:54:03;1.52;;;1.10;;
24801;SDS011;12898;50.520;12.152;2023-04-24T09:56:34;0.95;;;0.95;;
24801;SDS011;12898;50.520;12.152;2023-04-24T09:59:06;2.08;;;1.10;;
24801;SDS011;12898;50.520;12.152;2023-04-24T10:01:32;4.03;;;1.30;;
24801;SDS011;12898;50.520;12.152;2023-04-24T10:03:58;1.40;;;1.02;;
24801;SDS011;12898;50.520;12.152;2023-04-24T10:06:32;2.05;;;1.35;;
24801;SDS011;12898;50.520;12.152;2023-04-24T10:08:59;1.50;;;1.17;;
24801;SDS011;12898;50.520;12.152;2023-04-24T10:11:26;3.17;;;1.20;;
24801;SDS011;12898;50.520;12.152;2023-04-24T10:13:53;2.60;;;1.40;;
24801;SDS011;12898;50.520;12.152;2023-04-24T10:16:19;2.78;;;1.42;;
24801;SDS011;12898;50.520;12.152;2023-04-24T10:18:48;5.30;;;1.42;;
24801;SDS011;12898;50.520;12.152;2023-04-24T10:21:14;3.67;;;1.40;;
24801;SDS011;12898;50.520;12.152;2023-04-24T10:23:42;4.25;;;1.40;;
24801;SDS011;12898;50.520;12.152;2023-04-24T10:26:08;4.38;;;1.65;;
24801;SDS011;12898;50.520;12.152;2023-04-24T10:28:36;2.90;;;1.50;;
24801;SDS011;12898;50.520;12.152;2023-04-24T10:31:01;3.35;;;1.33;;
24801;SDS011;12898;50.520;12.152;2023-04-24T10:33:28;3.10;;;1.25;;
24801;SDS011;12898;50.520;12.152;2023-04-24T10:35:55;2.42;;;1.42;;
24801;SDS011;12898;50.520;12.152;2023-04-24T10:38:24;4.65;;;1.30;;
24801;SDS011;12898;50.520;12.152;2023-04-24T10:40:51;2.60;;;1.48;;
24801;SDS011;12898;50.520;12.152;2023-04-24T10:43:33;4.20;;;1.45;;
24801;SDS011;12898;50.520;12.152;2023-04-24T10:46:02;2.20;;;1.60;;
24801;SDS011;12898;50.520;12.152;2023-04-24T10:48:31;5.60;;;1.52;;
24801;SDS011;12898;50.520;12.152;2023-04-24T10:50:57;2.10;;;1.40;;
24801;SDS011;12898;50.520;12.152;2023-04-24T10:53:24;1.85;;;1.25;;
24801;SDS011;12898;50.520;12.152;2023-04-24T10:56:07;1.95;;;1.50;;
24801;SDS011;12898;50.520;12.152;2023-04-24T10:58:39;4.20;;;1.45;;
24801;SDS011;12898;50.520;12.152;2023-04-24T11:01:30;2.88;;;1.40;;
24801;SDS011;12898;50.520;12.152;2023-04-24T11:03:58;2.67;;;1.80;;
24801;SDS011;12898;50.520;12.152;2023-04-24T11:09:04;2.00;;;1.80;;
24801;SDS011;12898;50.520;12.152;2023-04-24T11:11:33;2.53;;;1.40;;
24801;SDS011;12898;50.520;12.152;2023-04-24T11:14:01;2.47;;;1.33;;
24801;SDS011;12898;50.520;12.152;2023-04-24T11:16:35;2.30;;;1.40;;
24801;SDS011;12898;50.520;12.152;2023-04-24T11:21:59;3.35;;;1.48;;
24801;SDS011;12898;50.520;12.152;2023-04-24T11:27:17;2.97;;;1.30;;
24801;SDS011;12898;50.520;12.152;2023-04-24T11:37:46;4.03;;;1.90;;
24801;SDS011;12898;50.520;12.152;2023-04-24T11:40:15;7.68;;;1.45;;
24801;SDS011;12898;50.520;12.152;2023-04-24T11:42:49;2.88;;;1.50;;
24801;SDS011;12898;50.520;12.152;2023-04-24T11:45:23;2.67;;;1.70;;
24801;SDS011;12898;50.520;12.152;2023-04-24T11:47:52;3.30;;;1.50;;
24801;SDS011;12898;50.520;12.152;2023-04-24T11:50:19;1.50;;;1.40;;
24801;SDS011;12898;50.520;12.152;2023-04-24T11:52:49;2.55;;;1.60;;
24801;SDS011;12898;50.520;12.152;2023-04-24T11:57:47;2.05;;;1.33;;
24801;SDS011;12898;50.520;12.152;2023-04-24T12:02:46;2.38;;;1.50;;
24801;SDS011;12898;50.520;12.152;2023-04-24T12:05:31;2.08;;;1.50;;
24801;SDS011;12898;50.520;12.152;2023-04-24T12:07:57;3.92;;;1.60;;
24801;SDS011;12898;50.520;12.152;2023-04-24T12:10:23;1.38;;;1.27;;
24801;SDS011;12898;50.520;12.152;2023-04-24T12:12:51;2.10;;;1.30;;
24801;SDS011;12898;50.520;12.152;2023-04-24T12:15:20;1.67;;;1.35;;
24801;SDS011;12898;50.520;12.152;2023-04-24T12:17:47;3.40;;;1.55;;
24801;SDS011;12898;50.520;12.152;2023-04-24T12:20:16;2.95;;;1.58;;
24801;SDS011;12898;50.520;12.152;2023-04-24T12:25:19;2.13;;;1.50;;
24801;SDS011;12898;50.520;12.152;2023-04-24T12:27:52;2.60;;;1.73;;
24801;SDS011;12898;50.520;12.152;2023-04-24T12:30:20;3.25;;;1.80;;
24801;SDS011;12898;50.520;12.152;2023-04-24T12:32:47;2.85;;;1.63;;
24801;SDS011;12898;50.520;12.152;2023-04-24T12:35:18;2.65;;;1.90;;
24801;SDS011;12898;50.520;12.152;2023-04-24T12:37:46;4.80;;;1.95;;
24801;SDS011;12898;50.520;12.152;2023-04-24T12:40:12;2.70;;;1.88;;
24801;SDS011;12898;50.520;12.152;2023-04-24T12:42:45;4.78;;;1.63;;
24801;SDS011;12898;50.520;12.152;2023-04-24T12:45:16;4.20;;;2.00;;
24801;SDS011;12898;50.520;12.152;2023-04-24T12:47:44;2.75;;;1.52;;
24801;SDS011;12898;50.520;12.152;2023-04-24T12:50:12;2.28;;;1.70;;
24801;SDS011;12898;50.520;12.152;2023-04-24T12:52:39;4.80;;;1.98;;
24801;SDS011;12898;50.520;12.152;2023-04-24T12:55:06;2.92;;;2.08;;
24801;SDS011;12898;50.520;12.152;2023-04-24T12:57:37;3.85;;;2.05;;
24801;SDS011;12898;50.520;12.152;2023-04-24T13:00:05;2.30;;;1.95;;
24801;SDS011;12898;50.520;12.152;2023-04-24T13:02:32;4.15;;;2.42;;
24801;SDS011;12898;50.520;12.152;2023-04-24T13:04:59;5.10;;;2.38;;
24801;SDS011;12898;50.520;12.152;2023-04-24T13:07:26;6.78;;;2.03;;
24801;SDS011;12898;50.520;12.152;2023-04-24T13:09:52;2.92;;;2.00;;
24801;SDS011;12898;50.520;12.152;2023-04-24T13:12:19;3.75;;;2.15;;
24801;SDS011;12898;50.520;12.152;2023-04-24T13:14:45;6.93;;;2.67;;
24801;SDS011;12898;50.520;12.152;2023-04-24T13:17:11;4.07;;;2.22;;
24801;SDS011;12898;50.520;12.152;2023-04-24T13:19:38;4.07;;;2.03;;
24801;SDS011;12898;50.520;12.152;2023-04-24T13:22:06;3.10;;;2.00;;
24801;SDS011;12898;50.520;12.152;2023-04-24T13:24:33;3.83;;;2.20;;
24801;SDS011;12898;50.520;12.152;2023-04-24T13:26:59;5.25;;;2.33;;
24801;SDS011;12898;50.520;12.152;2023-04-24T13:29:25;2.90;;;1.90;;
24801;SDS011;12898;50.520;12.152;2023-04-24T13:31:52;3.67;;;2.30;;
24801;SDS011;12898;50.520;12.152;2023-04-24T13:34:20;3.13;;;2.00;;
24801;SDS011;12898;50.520;12.152;2023-04-24T13:36:46;3.05;;;2.03;;
24801;SDS011;12898;50.520;12.152;2023-04-24T13:39:12;5.07;;;2.20;;
24801;SDS011;12898;50.520;12.152;2023-04-24T13:41:38;5.63;;;2.13;;
24801;SDS011;12898;50.520;12.152;2023-04-24T13:44:04;3.47;;;2.00;;
24801;SDS011;12898;50.520;12.152;2023-04-24T13:46:31;2.00;;;1.58;;
24801;SDS011;12898;50.520;12.152;2023-04-24T13:48:58;3.25;;;1.80;;
24801;SDS011;12898;50.520;12.152;2023-04-24T13:51:25;3.42;;;1.52;;
24801;SDS011;12898;50.520;12.152;2023-04-24T13:53:54;2.72;;;1.73;;
24801;SDS011;12898;50.520;12.152;2023-04-24T13:56:20;3.03;;;1.77;;
24801;SDS011;12898;50.520;12.152;2023-04-24T13:58:47;2.45;;;1.58;;
24801;SDS011;12898;50.520;12.152;2023-04-24T14:01:13;2.80;;;1.70;;
24801;SDS011;12898;50.520;12.152;2023-04-24T14:03:40;2.65;;;1.80;;
24801;SDS011;12898;50.520;12.152;2023-04-24T14:06:06;5.03;;;1.55;;
24801;SDS011;12898;50.520;12.152;2023-04-24T14:08:32;3.35;;;1.80;;
24801;SDS011;12898;50.520;12.152;2023-04-24T14:10:58;1.83;;;1.60;;
24801;SDS011;12898;50.520;12.152;2023-04-24T14:13:23;3.13;;;1.58;;
24801;SDS011;12898;50.520;12.152;2023-04-24T14:15:51;2.35;;;1.77;;
24801;SDS011;12898;50.520;12.152;2023-04-24T14:18:17;4.10;;;2.00;;
24801;SDS011;12898;50.520;12.152;2023-04-24T14:20:43;2.50;;;1.80;;
24801;SDS011;12898;50.520;12.152;2023-04-24T14:23:09;3.28;;;1.70;;
24801;SDS011;12898;50.520;12.152;2023-04-24T14:25:35;5.45;;;1.95;;
24801;SDS011;12898;50.520;12.152;2023-04-24T14:28:01;3.08;;;1.65;;
24801;SDS011;12898;50.520;12.152;2023-04-24T14:30:26;2.75;;;1.55;;
24801;SDS011;12898;50.520;12.152;2023-04-24T14:32:52;3.15;;;1.60;;
24801;SDS011;12898;50.520;12.152;2023-04-24T14:35:18;2.78;;;1.10;;
24801;SDS011;12898;50.520;12.152;2023-04-24T14:37:43;1.52;;;1.30;;
24801;SDS011;12898;50.520;12.152;2023-04-24T14:40:09;3.85;;;1.60;;
24801;SDS011;12898;50.520;12.152;2023-04-24T14:42:35;2.20;;;1.50;;
24801;SDS011;12898;50.520;12.152;2023-04-24T14:45:01;1.60;;;1.40;;
24801;SDS011;12898;50.520;12.152;2023-04-24T14:47:27;2.53;;;1.80;;
24801;SDS011;12898;50.520;12.152;2023-04-24T14:49:54;7.45;;;1.70;;
24801;SDS011;12898;50.520;12.152;2023-04-24T14:52:20;3.72;;;1.38;;
24801;SDS011;12898;50.520;12.152;2023-04-24T14:54:45;22.42;;;2.65;;